sensor_id;sensor_type;location;lat;lon;timestamp;P1;durP1;ratioP1;P2;durP2;ratioP2
483;SDS011;228;48.922;12.198;2023-05-13T04:01:34;5.67;;;5.07;;
483;SDS011;228;48.922;12.198;2023-05-13T04:04:00;5.63;;;4.67;;
483;SDS011;228;48.922;12.198;2023-05-13T04:06:29;5.37;;;4.87;;
483;SDS011;228;48.922;12.198;2023-05-13T04:08:56;6.13;;;4.93;;
483;SDS011;228;48.922;12.198;2023-05-13T04:11:22;7.77;;;5.30;;
483;SDS011;228;48.922;12.198;2023-05-13T04:13:48;5.33;;;4.83;;
483;SDS011;228;48.922;12.198;2023-05-13T04:16:14;6.20;;;5.37;;
483;SDS011;228;48.922;12.198;2023-05-13T04:18:41;5.53;;;5.00;;
483;SDS011;228;48.922;12.198;2023-05-13T04:21:07;6.40;;;4.93;;
483;SDS011;228;48.922;12.198;2023-05-13T04:23:34;7.30;;;4.97;;
483;SDS011;228;48.922;12.198;2023-05-13T04:26:00;5.73;;;5.23;;
483;SDS011;228;48.922;12.198;2023-05-13T04:28:27;5.27;;;4.77;;
483;SDS011;228;48.922;12.198;2023-05-13T04:30:54;6.30;;;5.30;;
483;SDS011;228;48.922;12.198;2023-05-13T04:33:20;6.37;;;5.20;;
483;SDS011;228;48.922;12.198;2023-05-13T04:35:47;5.27;;;4.77;;
483;SDS011;228;48.922;12.198;2023-05-13T04:38:13;5.40;;;4.90;;
483;SDS011;228;48.922;12.198;2023-05-13T04:40:39;5.20;;;4.70;;
483;SDS011;228;48.922;12.198;2023-05-13T04:43:10;6.27;;;4.63;;
483;SDS011;228;48.922;12.198;2023-05-13T04:45:46;5.30;;;4.80;;
483;SDS011;228;48.922;12.198;2023-05-13T04:48:13;5.40;;;4.63;;
483;SDS011;228;48.922;12.198;2023-05-13T04:50:46;5.97;;;5.00;;
483;SDS011;228;48.922;12.198;2023-05-13T04:53:14;8.57;;;4.67;;
483;SDS011;228;48.922;12.198;2023-05-13T04:55:40;5.70;;;5.10;;
483;SDS011;228;48.922;12.198;2023-05-13T04:58:06;5.50;;;5.00;;
483;SDS011;228;48.922;12.198;2023-05-13T05:00:34;5.13;;;4.63;;
483;SDS011;228;48.922;12.198;2023-05-13T05:03:01;6.03;;;5.43;;
483;SDS011;228;48.922;12.198;2023-05-13T05:05:30;5.70;;;5.10;;
483;SDS011;228;48.922;12.198;2023-05-13T05:07:59;5.43;;;4.93;;
483;SDS011;228;48.922;12.198;2023-05-13T05:10:25;4.87;;;4.40;;
483;SDS011;228;48.922;12.198;2023-05-13T05:12:55;5.10;;;4.60;;
483;SDS011;228;48.922;12.198;2023-05-13T05:15:23;5.57;;;5.07;;
483;SDS011;228;48.922;12.198;2023-05-13T05:17:54;5.80;;;5.20;;
483;SDS011;228;48.922;12.198;2023-05-13T05:20:22;6.33;;;4.60;;
483;SDS011;228;48.922;12.198;2023-05-13T05:22:55;5.17;;;4.67;;
483;SDS011;228;48.922;12.198;2023-05-13T05:25:24;5.33;;;4.83;;
483;SDS011;228;48.922;12.198;2023-05-13T05:27:50;5.23;;;4.57;;
483;SDS011;228;48.922;12.198;2023-05-13T05:30:16;4.97;;;4.50;;
483;SDS011;228;48.922;12.198;2023-05-13T05:32:47;5.10;;;4.70;;
483;SDS011;228;48.922;12.198;2023-05-13T05:35:13;6.17;;;4.37;;
483;SDS011;228;48.922;12.198;2023-05-13T05:37:41;4.27;;;3.87;;
483;SDS011;228;48.922;12.198;2023-05-13T05:40:07;4.40;;;3.97;;
483;SDS011;228;48.922;12.198;2023-05-13T05:42:46;4.97;;;4.47;;
483;SDS011;228;48.922;12.198;2023-05-13T05:45:12;4.63;;;4.23;;
483;SDS011;228;48.922;12.198;2023-05-13T05:47:40;4.67;;;4.10;;
483;SDS011;228;48.922;12.198;2023-05-13T05:50:09;4.83;;;4.40;;
483;SDS011;228;48.922;12.198;2023-05-13T05:52:35;4.80;;;4.10;;
483;SDS011;228;48.922;12.198;2023-05-13T05:55:01;5.03;;;4.23;;
483;SDS011;228;48.922;12.198;2023-05-13T05:57:27;4.57;;;4.17;;
483;SDS011;228;48.922;12.198;2023-05-13T05:59:53;4.90;;;4.50;;
483;SDS011;228;48.922;12.198;2023-05-13T06:02:19;4.63;;;4.23;;
483;SDS011;228;48.922;12.198;2023-05-13T06:04:45;4.63;;;4.07;;
483;SDS011;228;48.922;12.198;2023-05-13T06:07:12;5.13;;;4.10;;
483;SDS011;228;48.922;12.198;2023-05-13T06:09:38;4.37;;;3.97;;
483;SDS011;228;48.922;12.198;2023-05-13T06:12:04;4.70;;;4.30;;
483;SDS011;228;48.922;12.198;2023-05-13T06:14:31;4.50;;;4.10;;
483;SDS011;228;48.922;12.198;2023-05-13T06:16:57;5.97;;;4.00;;
483;SDS011;228;48.922;12.198;2023-05-13T06:19:23;5.50;;;4.13;;
483;SDS011;228;48.922;12.198;2023-05-13T06:21:49;7.20;;;4.10;;
483;SDS011;228;48.922;12.198;2023-05-13T06:24:15;4.80;;;4.37;;
483;SDS011;228;48.922;12.198;2023-05-13T06:26:44;4.83;;;3.90;;
483;SDS011;228;48.922;12.198;2023-05-13T06:29:12;4.57;;;4.17;;
483;SDS011;228;48.922;12.198;2023-05-13T06:31:38;6.90;;;4.23;;
483;SDS011;228;48.922;12.198;2023-05-13T06:34:04;5.33;;;4.20;;
483;SDS011;228;48.922;12.198;2023-05-13T06:36:33;4.37;;;3.97;;
483;SDS011;228;48.922;12.198;2023-05-13T06:39:02;4.60;;;3.73;;
483;SDS011;228;48.922;12.198;2023-05-13T06:41:31;4.30;;;3.70;;
483;SDS011;228;48.922;12.198;2023-05-13T06:44:05;4.23;;;3.93;;
483;SDS011;228;48.922;12.198;2023-05-13T06:46:38;4.27;;;3.87;;
483;SDS011;228;48.922;12.198;2023-05-13T06:49:04;4.53;;;3.70;;
483;SDS011;228;48.922;12.198;2023-05-13T06:51:30;4.47;;;3.87;;
483;SDS011;228;48.922;12.198;2023-05-13T06:53:59;4.23;;;3.83;;
483;SDS011;228;48.922;12.198;2023-05-13T06:56:25;4.27;;;3.40;;
483;SDS011;228;48.922;12.198;2023-05-13T06:58:51;5.17;;;3.27;;
483;SDS011;228;48.922;12.198;2023-05-13T07:01:19;4.17;;;3.47;;
483;SDS011;228;48.922;12.198;2023-05-13T07:03:48;4.13;;;3.37;;
483;SDS011;228;48.922;12.198;2023-05-13T07:06:14;5.40;;;3.83;;
483;SDS011;228;48.922;12.198;2023-05-13T07:08:40;4.20;;;3.33;;
483;SDS011;228;48.922;12.198;2023-05-13T07:11:07;3.40;;;3.10;;
483;SDS011;228;48.922;12.198;2023-05-13T07:13:34;3.70;;;3.30;;
483;SDS011;228;48.922;12.198;2023-05-13T07:16:02;3.60;;;3.17;;
483;SDS011;228;48.922;12.198;2023-05-13T07:18:28;3.50;;;3.07;;
483;SDS011;228;48.922;12.198;2023-05-13T07:20:54;3.53;;;3.03;;
483;SDS011;228;48.922;12.198;2023-05-13T07:23:23;5.77;;;2.70;;
483;SDS011;228;48.922;12.198;2023-05-13T07:25:51;3.20;;;2.90;;
483;SDS011;228;48.922;12.198;2023-05-13T07:28:18;2.60;;;2.40;;
483;SDS011;228;48.922;12.198;2023-05-13T07:30:45;2.70;;;2.50;;
483;SDS011;228;48.922;12.198;2023-05-13T07:33:11;2.90;;;2.70;;
483;SDS011;228;48.922;12.198;2023-05-13T07:35:38;3.37;;;3.03;;
483;SDS011;228;48.922;12.198;2023-05-13T07:38:05;2.87;;;2.67;;
483;SDS011;228;48.922;12.198;2023-05-13T07:40:34;3.07;;;2.63;;
483;SDS011;228;48.922;12.198;2023-05-13T07:43:00;3.17;;;2.87;;
483;SDS011;228;48.922;12.198;2023-05-13T07:45:26;3.30;;;3.00;;
483;SDS011;228;48.922;12.198;2023-05-13T07:47:53;3.40;;;3.10;;
483;SDS011;228;48.922;12.198;2023-05-13T07:50:20;3.43;;;2.83;;
483;SDS011;228;48.922;12.198;2023-05-13T07:52:48;2.70;;;2.50;;
483;SDS011;228;48.922;12.198;2023-05-13T07:55:16;3.03;;;2.77;;
483;SDS011;228;48.922;12.198;2023-05-13T07:57:43;2.70;;;2.50;;
483;SDS011;228;48.922;12.198;2023-05-13T08:00:12;2.80;;;2.60;;
483;SDS011;228;48.922;12.198;2023-05-13T08:02:41;2.88;;;2.67;;
483;SDS011;228;48.922;12.198;2023-05-13T08:05:08;2.83;;;2.53;;
483;SDS011;228;48.922;12.198;2023-05-13T08:07:35;2.90;;;2.70;;
483;SDS011;228;48.922;12.198;2023-05-13T08:10:01;3.50;;;2.85;;
483;SDS011;228;48.922;12.198;2023-05-13T08:12:31;3.28;;;2.53;;
483;SDS011;228;48.922;12.198;2023-05-13T08:14:57;3.00;;;2.70;;
483;SDS011;228;48.922;12.198;2023-05-13T08:17:23;2.70;;;2.50;;
483;SDS011;228;48.922;12.198;2023-05-13T08:19:49;3.40;;;2.63;;
483;SDS011;228;48.922;12.198;2023-05-13T08:22:16;2.80;;;2.58;;
483;SDS011;228;48.922;12.198;2023-05-13T08:24:42;3.15;;;2.40;;
483;SDS011;228;48.922;12.198;2023-05-13T08:27:08;3.28;;;2.70;;
483;SDS011;228;48.922;12.198;2023-05-13T08:29:34;2.40;;;2.20;;
483;SDS011;228;48.922;12.198;2023-05-13T08:32:00;2.67;;;2.28;;
483;SDS011;228;48.922;12.198;2023-05-13T08:34:28;2.35;;;2.15;;
483;SDS011;228;48.922;12.198;2023-05-13T08:36:54;2.60;;;2.40;;
483;SDS011;228;48.922;12.198;2023-05-13T08:39:20;1.95;;;1.85;;
483;SDS011;228;48.922;12.198;2023-05-13T08:41:47;2.30;;;2.10;;
483;SDS011;228;48.922;12.198;2023-05-13T08:44:17;2.70;;;2.40;;
483;SDS011;228;48.922;12.198;2023-05-13T08:46:50;2.40;;;2.03;;
483;SDS011;228;48.922;12.198;2023-05-13T08:49:47;2.65;;;2.17;;
483;SDS011;228;48.922;12.198;2023-05-13T08:52:14;2.50;;;2.30;;
483;SDS011;228;48.922;12.198;2023-05-13T08:54:43;1.98;;;1.88;;
483;SDS011;228;48.922;12.198;2023-05-13T08:57:11;1.95;;;1.85;;
483;SDS011;228;48.922;12.198;2023-05-13T08:59:37;2.83;;;1.80;;
483;SDS011;228;48.922;12.198;2023-05-13T09:02:06;2.03;;;1.83;;
483;SDS011;228;48.922;12.198;2023-05-13T09:04:34;1.88;;;1.70;;
483;SDS011;228;48.922;12.198;2023-05-13T09:07:06;2.70;;;2.22;;
483;SDS011;228;48.922;12.198;2023-05-13T09:09:35;3.08;;;2.20;;
483;SDS011;228;48.922;12.198;2023-05-13T09:12:04;2.70;;;1.90;;
483;SDS011;228;48.922;12.198;2023-05-13T09:14:31;1.90;;;1.70;;
483;SDS011;228;48.922;12.198;2023-05-13T09:17:00;1.70;;;1.60;;
483;SDS011;228;48.922;12.198;2023-05-13T09:19:29;1.42;;;1.33;;
483;SDS011;228;48.922;12.198;2023-05-13T09:21:56;1.52;;;1.42;;
483;SDS011;228;48.922;12.198;2023-05-13T09:24:25;1.40;;;1.30;;
483;SDS011;228;48.922;12.198;2023-05-13T09:26:54;1.52;;;1.42;;
483;SDS011;228;48.922;12.198;2023-05-13T09:29:24;1.52;;;1.42;;
483;SDS011;228;48.922;12.198;2023-05-13T09:31:59;1.77;;;1.50;;
483;SDS011;228;48.922;12.198;2023-05-13T09:34:27;1.45;;;1.35;;
483;SDS011;228;48.922;12.198;2023-05-13T09:37:04;1.67;;;1.58;;
483;SDS011;228;48.922;12.198;2023-05-13T09:39:33;1.90;;;1.80;;
483;SDS011;228;48.922;12.198;2023-05-13T09:42:04;1.60;;;1.50;;
483;SDS011;228;48.922;12.198;2023-05-13T09:44:40;1.60;;;1.50;;
483;SDS011;228;48.922;12.198;2023-05-13T09:47:15;4.40;;;1.52;;
483;SDS011;228;48.922;12.198;2023-05-13T09:49:53;1.60;;;1.50;;
483;SDS011;228;48.922;12.198;2023-05-13T09:52:21;1.60;;;1.50;;
483;SDS011;228;48.922;12.198;2023-05-13T09:54:48;1.73;;;1.63;;
483;SDS011;228;48.922;12.198;2023-05-13T09:57:14;2.42;;;1.70;;
483;SDS011;228;48.922;12.198;2023-05-13T09:59:41;2.75;;;1.60;;
483;SDS011;228;48.922;12.198;2023-05-13T10:02:07;1.70;;;1.60;;
483;SDS011;228;48.922;12.198;2023-05-13T10:09:38;1.80;;;1.70;;
483;SDS011;228;48.922;12.198;2023-05-13T10:12:07;3.67;;;2.30;;
483;SDS011;228;48.922;12.198;2023-05-13T10:14:36;3.78;;;1.92;;
483;SDS011;228;48.922;12.198;2023-05-13T10:17:05;1.70;;;1.60;;
483;SDS011;228;48.922;12.198;2023-05-13T10:19:32;1.70;;;1.60;;
483;SDS011;228;48.922;12.198;2023-05-13T10:22:00;1.77;;;1.67;;
483;SDS011;228;48.922;12.198;2023-05-13T10:24:27;1.60;;;1.50;;
483;SDS011;228;48.922;12.198;2023-05-13T10:26:55;1.60;;;1.50;;
483;SDS011;228;48.922;12.198;2023-05-13T10:29:23;1.58;;;1.40;;
483;SDS011;228;48.922;12.198;2023-05-13T10:31:50;1.20;;;1.20;;
483;SDS011;228;48.922;12.198;2023-05-13T10:34:16;1.45;;;1.35;;
483;SDS011;228;48.922;12.198;2023-05-13T10:36:55;1.20;;;1.20;;
483;SDS011;228;48.922;12.198;2023-05-13T10:45:51;1.60;;;1.50;;
483;SDS011;228;48.922;12.198;2023-05-13T10:48:23;1.50;;;1.40;;
483;SDS011;228;48.922;12.198;2023-05-13T10:50:55;1.60;;;1.50;;
483;SDS011;228;48.922;12.198;2023-05-13T10:53:27;1.50;;;1.40;;
483;SDS011;228;48.922;12.198;2023-05-13T10:55:59;1.60;;;1.50;;
483;SDS011;228;48.922;12.198;2023-05-13T10:58:29;1.73;;;1.60;;
483;SDS011;228;48.922;12.198;2023-05-13T11:03:58;1.70;;;1.60;;
483;SDS011;228;48.922;12.198;2023-05-13T11:06:36;1.98;;;1.80;;
483;SDS011;228;48.922;12.198;2023-05-13T11:09:10;2.25;;;2.05;;
483;SDS011;228;48.922;12.198;2023-05-13T11:11:46;2.25;;;2.05;;
483;SDS011;228;48.922;12.198;2023-05-13T11:14:15;2.53;;;2.17;;
483;SDS011;228;48.922;12.198;2023-05-13T11:17:18;1.98;;;1.73;;
483;SDS011;228;48.922;12.198;2023-05-13T11:19:37;1.85;;;1.75;;
483;SDS011;228;48.922;12.198;2023-05-13T11:26:57;1.75;;;1.65;;
483;SDS011;228;48.922;12.198;2023-05-13T11:29:42;1.92;;;1.83;;
483;SDS011;228;48.922;12.198;2023-05-13T11:39:55;3.17;;;1.40;;
483;SDS011;228;48.922;12.198;2023-05-13T11:42:22;1.60;;;1.50;;
483;SDS011;228;48.922;12.198;2023-05-13T11:44:50;1.50;;;1.40;;
483;SDS011;228;48.922;12.198;2023-05-13T11:47:24;1.90;;;1.70;;
483;SDS011;228;48.922;12.198;2023-05-13T11:49:53;1.70;;;1.60;;
483;SDS011;228;48.922;12.198;2023-05-13T11:52:20;1.60;;;1.50;;
483;SDS011;228;48.922;12.198;2023-05-13T11:54:47;1.88;;;1.50;;
483;SDS011;228;48.922;12.198;2023-05-13T11:57:25;1.67;;;1.58;;
483;SDS011;228;48.922;12.198;2023-05-13T12:02:32;1.70;;;1.60;;
483;SDS011;228;48.922;12.198;2023-05-13T12:05:02;1.58;;;1.40;;
483;SDS011;228;48.922;12.198;2023-05-13T12:07:36;1.58;;;1.48;;
483;SDS011;228;48.922;12.198;2023-05-13T12:10:04;1.50;;;1.40;;
483;SDS011;228;48.922;12.198;2023-05-13T12:12:33;2.33;;;1.63;;
483;SDS011;228;48.922;12.198;2023-05-13T12:15:06;1.50;;;1.40;;
483;SDS011;228;48.922;12.198;2023-05-13T12:17:35;1.58;;;1.48;;
483;SDS011;228;48.922;12.198;2023-05-13T12:20:06;1.52;;;1.42;;
483;SDS011;228;48.922;12.198;2023-05-13T12:22:47;1.50;;;1.40;;
483;SDS011;228;48.922;12.198;2023-05-13T12:28:12;4.32;;;1.50;;
483;SDS011;228;48.922;12.198;2023-05-13T12:31:00;1.50;;;1.40;;
483;SDS011;228;48.922;12.198;2023-05-13T12:33:42;1.55;;;1.40;;
483;SDS011;228;48.922;12.198;2023-05-13T12:36:26;1.50;;;1.40;;
483;SDS011;228;48.922;12.198;2023-05-13T12:39:34;1.40;;;1.30;;
483;SDS011;228;48.922;12.198;2023-05-13T12:42:21;1.27;;;1.27;;
483;SDS011;228;48.922;12.198;2023-05-13T12:44:53;1.38;;;1.33;;
483;SDS011;228;48.922;12.198;2023-05-13T12:47:49;1.65;;;1.50;;
483;SDS011;228;48.922;12.198;2023-05-13T12:50:50;2.45;;;1.30;;
483;SDS011;228;48.922;12.198;2023-05-13T12:53:51;1.50;;;1.40;;
483;SDS011;228;48.922;12.198;2023-05-13T12:56:25;1.50;;;1.40;;
483;SDS011;228;48.922;12.198;2023-05-13T12:59:03;1.40;;;1.30;;
483;SDS011;228;48.922;12.198;2023-05-13T13:02:11;1.70;;;1.35;;
483;SDS011;228;48.922;12.198;2023-05-13T13:04:52;1.33;;;1.30;;
483;SDS011;228;48.922;12.198;2023-05-13T13:07:38;1.35;;;1.27;;
483;SDS011;228;48.922;12.198;2023-05-13T13:10:51;1.40;;;1.30;;
483;SDS011;228;48.922;12.198;2023-05-13T13:14:10;1.23;;;1.17;;
483;SDS011;228;48.922;12.198;2023-05-13T13:17:07;1.58;;;1.48;;
483;SDS011;228;48.922;12.198;2023-05-13T13:20:20;1.10;;;1.10;;
483;SDS011;228;48.922;12.198;2023-05-13T13:23:22;1.60;;;1.50;;
483;SDS011;228;48.922;12.198;2023-05-13T13:26:01;1.42;;;1.33;;
483;SDS011;228;48.922;12.198;2023-05-13T13:28:41;2.33;;;2.13;;
483;SDS011;228;48.922;12.198;2023-05-13T13:31:51;2.63;;;2.42;;
483;SDS011;228;48.922;12.198;2023-05-13T13:34:43;1.80;;;1.70;;
483;SDS011;228;48.922;12.198;2023-05-13T13:37:29;1.80;;;1.70;;
483;SDS011;228;48.922;12.198;2023-05-13T13:43:36;1.60;;;1.50;;
483;SDS011;228;48.922;12.198;2023-05-13T13:46:26;1.20;;;1.20;;
483;SDS011;228;48.922;12.198;2023-05-13T13:49:33;1.20;;;1.20;;
483;SDS011;228;48.922;12.198;2023-05-13T13:52:44;1.17;;;1.17;;
483;SDS011;228;48.922;12.198;2023-05-13T13:55:16;1.50;;;1.40;;
483;SDS011;228;48.922;12.198;2023-05-13T13:58:23;1.50;;;1.40;;
483;SDS011;228;48.922;12.198;2023-05-13T14:01:36;1.40;;;1.30;;
483;SDS011;228;48.922;12.198;2023-05-13T14:04:22;1.20;;;1.20;;
483;SDS011;228;48.922;12.198;2023-05-13T14:07:25;1.10;;;1.10;;
483;SDS011;228;48.922;12.198;2023-05-13T14:10:00;1.15;;;1.15;;
483;SDS011;228;48.922;12.198;2023-05-13T14:12:39;1.45;;;1.27;;
483;SDS011;228;48.922;12.198;2023-05-13T14:15:12;1.10;;;1.10;;
483;SDS011;228;48.922;12.198;2023-05-13T14:17:46;1.33;;;1.23;;
483;SDS011;228;48.922;12.198;2023-05-13T14:20:28;1.17;;;1.17;;
483;SDS011;228;48.922;12.198;2023-05-13T14:22:54;1.10;;;1.10;;
483;SDS011;228;48.922;12.198;2023-05-13T14:25:29;1.33;;;1.30;;
483;SDS011;228;48.922;12.198;2023-05-13T14:27:58;2.08;;;1.15;;
483;SDS011;228;48.922;12.198;2023-05-13T14:30:53;1.10;;;1.10;;
483;SDS011;228;48.922;12.198;2023-05-13T14:33:57;1.48;;;1.38;;
483;SDS011;228;48.922;12.198;2023-05-13T14:37:22;3.00;;;2.33;;
483;SDS011;228;48.922;12.198;2023-05-13T14:40:09;2.00;;;1.80;;
483;SDS011;228;48.922;12.198;2023-05-13T14:43:08;1.33;;;1.27;;
483;SDS011;228;48.922;12.198;2023-05-13T14:46:15;1.45;;;1.35;;
483;SDS011;228;48.922;12.198;2023-05-13T14:48:50;1.60;;;1.50;;
483;SDS011;228;48.922;12.198;2023-05-13T14:51:19;1.73;;;1.63;;
483;SDS011;228;48.922;12.198;2023-05-13T14:54:20;1.52;;;1.42;;
483;SDS011;228;48.922;12.198;2023-05-13T14:56:46;3.00;;;1.58;;
483;SDS011;228;48.922;12.198;2023-05-13T14:59:12;1.65;;;1.55;;
483;SDS011;228;48.922;12.198;2023-05-13T15:01:38;1.60;;;1.50;;
483;SDS011;228;48.922;12.198;2023-05-13T15:04:04;1.70;;;1.60;;
483;SDS011;228;48.922;12.198;2023-05-13T15:06:30;1.80;;;1.70;;
483;SDS011;228;48.922;12.198;2023-05-13T15:08:57;1.80;;;1.67;;
483;SDS011;228;48.922;12.198;2023-05-13T15:11:26;1.77;;;1.67;;
483;SDS011;228;48.922;12.198;2023-05-13T15:14:25;1.70;;;1.60;;
483;SDS011;228;48.922;12.198;2023-05-13T15:17:04;1.88;;;1.77;;
483;SDS011;228;48.922;12.198;2023-05-13T15:19:36;1.80;;;1.70;;
483;SDS011;228;48.922;12.198;2023-05-13T15:22:18;2.67;;;2.20;;
483;SDS011;228;48.922;12.198;2023-05-13T15:24:45;2.22;;;2.08;;
483;SDS011;228;48.922;12.198;2023-05-13T15:30:08;2.20;;;2.00;;
483;SDS011;228;48.922;12.198;2023-05-13T15:32:38;3.15;;;2.15;;
483;SDS011;228;48.922;12.198;2023-05-13T15:35:08;2.72;;;2.50;;
483;SDS011;228;48.922;12.198;2023-05-13T15:37:34;2.10;;;2.00;;
483;SDS011;228;48.922;12.198;2023-05-13T15:40:01;2.08;;;1.98;;
483;SDS011;228;48.922;12.198;2023-05-13T15:42:27;2.95;;;2.15;;
483;SDS011;228;48.922;12.198;2023-05-13T15:44:54;3.13;;;2.38;;
483;SDS011;228;48.922;12.198;2023-05-13T15:47:35;2.50;;;2.30;;
483;SDS011;228;48.922;12.198;2023-05-13T15:50:57;2.60;;;2.40;;
483;SDS011;228;48.922;12.198;2023-05-13T15:53:35;2.40;;;2.20;;
483;SDS011;228;48.922;12.198;2023-05-13T15:56:20;3.03;;;2.50;;
483;SDS011;228;48.922;12.198;2023-05-13T15:59:17;3.28;;;2.97;;
483;SDS011;228;48.922;12.198;2023-05-13T16:02:11;3.30;;;3.00;;
483;SDS011;228;48.922;12.198;2023-05-13T16:04:46;3.55;;;3.13;;
483;SDS011;228;48.922;12.198;2023-05-13T16:11:06;4.90;;;3.95;;
483;SDS011;228;48.922;12.198;2023-05-13T16:13:40;4.73;;;4.23;;
483;SDS011;228;48.922;12.198;2023-05-13T16:16:47;3.70;;;3.40;;
483;SDS011;228;48.922;12.198;2023-05-13T16:20:02;5.05;;;4.50;;
483;SDS011;228;48.922;12.198;2023-05-13T16:22:34;4.90;;;3.75;;
483;SDS011;228;48.922;12.198;2023-05-13T16:25:05;4.00;;;3.60;;
483;SDS011;228;48.922;12.198;2023-05-13T16:27:39;4.13;;;3.72;;
483;SDS011;228;48.922;12.198;2023-05-13T16:30:15;5.55;;;3.72;;
483;SDS011;228;48.922;12.198;2023-05-13T16:32:54;4.47;;;4.07;;
483;SDS011;228;48.922;12.198;2023-05-13T16:35:26;4.40;;;4.00;;
483;SDS011;228;48.922;12.198;2023-05-13T16:38:23;6.90;;;4.63;;
483;SDS011;228;48.922;12.198;2023-05-13T16:40:58;5.22;;;4.32;;
483;SDS011;228;48.922;12.198;2023-05-13T16:43:26;6.70;;;4.05;;
483;SDS011;228;48.922;12.198;2023-05-13T16:45:59;7.78;;;5.28;;
483;SDS011;228;48.922;12.198;2023-05-13T16:48:34;5.55;;;4.95;;
483;SDS011;228;48.922;12.198;2023-05-13T16:51:07;5.68;;;5.15;;
483;SDS011;228;48.922;12.198;2023-05-13T16:53:53;5.38;;;4.82;;
483;SDS011;228;48.922;12.198;2023-05-13T16:56:48;5.50;;;4.93;;
483;SDS011;228;48.922;12.198;2023-05-13T16:59:24;6.10;;;5.32;;
483;SDS011;228;48.922;12.198;2023-05-13T17:02:05;5.30;;;4.80;;
483;SDS011;228;48.922;12.198;2023-05-13T17:04:45;5.72;;;5.13;;
483;SDS011;228;48.922;12.198;2023-05-13T17:07:18;5.25;;;4.75;;
483;SDS011;228;48.922;12.198;2023-05-13T17:09:49;6.05;;;5.05;;
483;SDS011;228;48.922;12.198;2023-05-13T17:12:29;5.50;;;4.90;;
483;SDS011;228;48.922;12.198;2023-05-13T17:14:55;5.13;;;4.63;;
483;SDS011;228;48.922;12.198;2023-05-13T17:17:26;6.85;;;5.32;;
483;SDS011;228;48.922;12.198;2023-05-13T17:19:58;6.53;;;5.35;;
483;SDS011;228;48.922;12.198;2023-05-13T17:22:36;6.05;;;5.43;;
483;SDS011;228;48.922;12.198;2023-05-13T17:25:04;6.97;;;5.97;;
483;SDS011;228;48.922;12.198;2023-05-13T17:27:31;6.67;;;5.67;;
483;SDS011;228;48.922;12.198;2023-05-13T17:29:57;6.47;;;5.70;;
483;SDS011;228;48.922;12.198;2023-05-13T17:32:23;8.37;;;6.03;;
483;SDS011;228;48.922;12.198;2023-05-13T17:34:49;6.60;;;5.80;;
483;SDS011;228;48.922;12.198;2023-05-13T17:37:15;6.10;;;5.50;;
483;SDS011;228;48.922;12.198;2023-05-13T17:39:43;6.10;;;5.50;;
483;SDS011;228;48.922;12.198;2023-05-13T17:42:09;6.97;;;5.83;;
483;SDS011;228;48.922;12.198;2023-05-13T17:44:39;7.80;;;6.23;;
483;SDS011;228;48.922;12.198;2023-05-13T17:47:10;6.63;;;5.67;;
483;SDS011;228;48.922;12.198;2023-05-13T17:49:36;6.60;;;5.90;;
483;SDS011;228;48.922;12.198;2023-05-13T17:52:02;6.47;;;5.87;;
483;SDS011;228;48.922;12.198;2023-05-13T17:54:30;7.30;;;5.87;;
483;SDS011;228;48.922;12.198;2023-05-13T17:56:56;7.60;;;6.30;;
483;SDS011;228;48.922;12.198;2023-05-13T17:59:22;7.43;;;6.47;;
483;SDS011;228;48.922;12.198;2023-05-13T18:01:48;6.93;;;6.10;;
483;SDS011;228;48.922;12.198;2023-05-13T18:04:14;8.80;;;6.23;;
483;SDS011;228;48.922;12.198;2023-05-13T18:06:41;6.87;;;6.17;;
483;SDS011;228;48.922;12.198;2023-05-13T18:09:07;6.77;;;5.93;;
483;SDS011;228;48.922;12.198;2023-05-13T18:11:33;6.33;;;5.70;;
483;SDS011;228;48.922;12.198;2023-05-13T18:13:59;8.43;;;6.73;;
483;SDS011;228;48.922;12.198;2023-05-13T18:16:27;6.37;;;5.77;;
483;SDS011;228;48.922;12.198;2023-05-13T18:18:53;6.77;;;5.90;;
483;SDS011;228;48.922;12.198;2023-05-13T18:21:19;6.90;;;6.20;;
483;SDS011;228;48.922;12.198;2023-05-13T18:23:45;6.90;;;6.23;;
483;SDS011;228;48.922;12.198;2023-05-13T18:26:11;7.47;;;6.30;;
483;SDS011;228;48.922;12.198;2023-05-13T18:28:39;8.03;;;6.67;;
483;SDS011;228;48.922;12.198;2023-05-13T18:31:06;7.20;;;6.40;;
483;SDS011;228;48.922;12.198;2023-05-13T18:33:32;8.93;;;7.70;;
483;SDS011;228;48.922;12.198;2023-05-13T18:35:58;9.03;;;7.90;;
483;SDS011;228;48.922;12.198;2023-05-13T18:38:24;10.37;;;8.10;;
483;SDS011;228;48.922;12.198;2023-05-13T18:40:50;8.03;;;6.93;;
483;SDS011;228;48.922;12.198;2023-05-13T18:43:19;7.93;;;6.87;;
483;SDS011;228;48.922;12.198;2023-05-13T18:45:45;15.03;;;9.30;;
483;SDS011;228;48.922;12.198;2023-05-13T18:48:11;9.13;;;7.40;;
483;SDS011;228;48.922;12.198;2023-05-13T18:50:37;9.00;;;6.57;;
483;SDS011;228;48.922;12.198;2023-05-13T18:53:03;7.37;;;6.50;;
483;SDS011;228;48.922;12.198;2023-05-13T18:55:29;8.23;;;6.93;;
483;SDS011;228;48.922;12.198;2023-05-13T18:57:58;7.03;;;6.33;;
483;SDS011;228;48.922;12.198;2023-05-13T19:00:24;7.90;;;5.77;;
483;SDS011;228;48.922;12.198;2023-05-13T19:02:51;7.60;;;5.83;;
483;SDS011;228;48.922;12.198;2023-05-13T19:05:17;7.10;;;6.03;;
483;SDS011;228;48.922;12.198;2023-05-13T19:07:43;7.03;;;6.33;;
483;SDS011;228;48.922;12.198;2023-05-13T19:10:09;6.30;;;5.70;;
483;SDS011;228;48.922;12.198;2023-05-13T19:12:37;7.17;;;6.47;;
483;SDS011;228;48.922;12.198;2023-05-13T19:15:06;7.97;;;5.83;;
483;SDS011;228;48.922;12.198;2023-05-13T19:17:33;7.03;;;6.10;;
483;SDS011;228;48.922;12.198;2023-05-13T19:19:59;6.27;;;5.67;;
483;SDS011;228;48.922;12.198;2023-05-13T19:22:25;8.67;;;6.43;;
483;SDS011;228;48.922;12.198;2023-05-13T19:24:54;8.73;;;5.93;;
483;SDS011;228;48.922;12.198;2023-05-13T19:27:22;6.63;;;5.93;;
483;SDS011;228;48.922;12.198;2023-05-13T19:29:48;6.00;;;5.40;;
483;SDS011;228;48.922;12.198;2023-05-13T19:32:17;6.50;;;5.80;;
483;SDS011;228;48.922;12.198;2023-05-13T19:34:43;6.97;;;6.13;;
483;SDS011;228;48.922;12.198;2023-05-13T19:37:09;7.60;;;6.10;;
483;SDS011;228;48.922;12.198;2023-05-13T19:39:35;9.93;;;6.50;;
483;SDS011;228;48.922;12.198;2023-05-13T19:42:03;11.37;;;7.07;;
483;SDS011;228;48.922;12.198;2023-05-13T19:44:29;10.90;;;6.87;;
483;SDS011;228;48.922;12.198;2023-05-13T19:46:56;13.23;;;7.27;;
483;SDS011;228;48.922;12.198;2023-05-13T19:49:22;12.50;;;6.87;;
483;SDS011;228;48.922;12.198;2023-05-13T19:51:49;13.33;;;6.90;;
483;SDS011;228;48.922;12.198;2023-05-13T19:54:17;13.33;;;7.43;;
483;SDS011;228;48.922;12.198;2023-05-13T19:56:43;14.23;;;8.53;;
483;SDS011;228;48.922;12.198;2023-05-13T19:59:10;8.93;;;7.30;;
483;SDS011;228;48.922;12.198;2023-05-13T20:01:36;8.57;;;6.70;;
483;SDS011;228;48.922;12.198;2023-05-13T20:04:02;9.00;;;7.17;;
483;SDS011;228;48.922;12.198;2023-05-13T20:06:29;7.67;;;6.60;;
483;SDS011;228;48.922;12.198;2023-05-13T20:08:55;7.27;;;6.40;;
483;SDS011;228;48.922;12.198;2023-05-13T20:11:22;9.83;;;7.20;;
483;SDS011;228;48.922;12.198;2023-05-13T20:13:48;8.03;;;6.60;;
483;SDS011;228;48.922;12.198;2023-05-13T20:16:24;9.73;;;6.87;;
483;SDS011;228;48.922;12.198;2023-05-13T20:18:50;9.00;;;6.77;;
483;SDS011;228;48.922;12.198;2023-05-13T20:21:17;10.40;;;7.33;;
483;SDS011;228;48.922;12.198;2023-05-13T20:23:43;9.83;;;6.83;;
483;SDS011;228;48.922;12.198;2023-05-13T20:26:09;9.37;;;6.70;;
483;SDS011;228;48.922;12.198;2023-05-13T20:28:35;7.63;;;6.17;;
483;SDS011;228;48.922;12.198;2023-05-13T20:31:01;8.33;;;7.07;;
483;SDS011;228;48.922;12.198;2023-05-13T20:33:28;8.77;;;6.50;;
483;SDS011;228;48.922;12.198;2023-05-13T20:35:54;6.93;;;6.23;;
483;SDS011;228;48.922;12.198;2023-05-13T20:38:20;8.00;;;6.40;;
483;SDS011;228;48.922;12.198;2023-05-13T20:40:46;6.97;;;6.27;;
483;SDS011;228;48.922;12.198;2023-05-13T20:43:13;7.00;;;6.30;;
483;SDS011;228;48.922;12.198;2023-05-13T20:45:42;7.10;;;6.27;;